Time;durP1;ratioP1;P1;durP2;ratioP2;P2;SDS_P1;SDS_P2;PMS_P1;PMS_P2;Temp;Humidity;BMP_temperature;BMP_pressure;BME280_temperature;BME280_humidity;BME280_pressure;Samples;Min_cycle;Max_cycle;Signal;HPM_P1;HPM_P2
2023/03/21 00:01:22;;;;;;;2.90;2.35;;;16.20;56.80;;;;;;5053742;28;20649;-56
2023/03/21 00:03:50;;;;;;;3.63;2.70;;;16.20;56.90;;;;;;5054101;28;20175;-54
2023/03/21 00:06:15;;;;;;;3.22;2.55;;;16.20;56.90;;;;;;5054290;28;20175;-55
2023/03/21 00:08:41;;;;;;;3.05;2.65;;;16.20;56.90;;;;;;5053350;28;20211;-55
2023/03/21 00:11:08;;;;;;;3.58;2.50;;;16.20;56.90;;;;;;5054347;28;20175;-55
2023/03/21 00:13:37;;;;;;;3.05;2.50;;;16.10;56.90;;;;;;5054050;28;20610;-56
2023/03/21 00:16:14;;;;;;;3.28;2.80;;;16.20;56.90;;;;;;5053169;28;20597;-56
2023/03/21 00:18:40;;;;;;;2.67;2.47;;;16.10;56.90;;;;;;5054055;28;20190;-54
2023/03/21 00:21:07;;;;;;;3.40;2.70;;;16.20;57.00;;;;;;5053554;28;20237;-54
2023/03/21 00:23:33;;;;;;;3.28;2.58;;;16.20;56.90;;;;;;5052139;28;20187;-55
2023/03/21 00:25:59;;;;;;;4.03;3.33;;;16.10;56.90;;;;;;5053770;28;20181;-55
2023/03/21 00:28:24;;;;;;;3.05;2.75;;;16.20;57.00;;;;;;5053939;28;20309;-55
2023/03/21 00:30:50;;;;;;;3.53;2.72;;;16.10;57.00;;;;;;5052804;28;20181;-55
2023/03/21 00:33:19;;;;;;;4.05;2.83;;;16.10;57.00;;;;;;5053741;28;20186;-56
2023/03/21 00:35:46;;;;;;;4.05;3.20;;;16.10;57.00;;;;;;5052612;28;20179;-56
2023/03/21 00:38:12;;;;;;;3.55;2.50;;;16.10;57.00;;;;;;5053735;28;20182;-55
2023/03/21 00:40:38;;;;;;;3.28;2.80;;;16.00;56.90;;;;;;5053694;28;20586;-53
2023/03/21 00:43:03;;;;;;;3.72;2.60;;;16.10;57.00;;;;;;5052726;28;20285;-55
2023/03/21 00:45:29;;;;;;;3.55;2.88;;;16.10;57.00;;;;;;5053633;28;20178;-56
2023/03/21 00:47:55;;;;;;;6.28;3.13;;;16.10;57.10;;;;;;5053160;28;20220;-56
2023/03/21 00:50:21;;;;;;;2.97;2.45;;;16.10;57.10;;;;;;5052717;28;20187;-55
2023/03/21 00:52:46;;;;;;;3.85;2.63;;;16.10;57.00;;;;;;5053310;28;20649;-55
2023/03/21 00:55:16;;;;;;;4.80;3.10;;;16.10;57.00;;;;;;5053477;28;20217;-52
2023/03/21 00:57:42;;;;;;;3.17;2.63;;;16.00;57.00;;;;;;5052725;28;20260;-56
2023/03/21 01:00:09;;;;;;;2.92;2.50;;;16.10;57.00;;;;;;5053336;28;20182;-55
2023/03/21 01:02:36;;;;;;;2.97;2.63;;;16.10;57.00;;;;;;5053221;28;20179;-56
2023/03/21 01:05:03;;;;;;;3.40;2.63;;;16.10;57.10;;;;;;5052076;28;20266;-56
2023/03/21 01:07:28;;;;;;;3.35;2.95;;;16.10;57.00;;;;;;5053343;28;20592;-56
2023/03/21 01:09:54;;;;;;;4.57;3.33;;;16.00;57.00;;;;;;5052636;28;20621;-55
2023/03/21 01:12:19;;;;;;;3.20;2.80;;;16.00;57.00;;;;;;5052327;28;20213;-52
2023/03/21 01:14:45;;;;;;;2.72;2.53;;;16.00;57.10;;;;;;5052241;28;20183;-54
2023/03/21 01:17:10;;;;;;;2.72;2.53;;;16.00;57.10;;;;;;5052876;28;20175;-54
2023/03/21 01:19:36;;;;;;;4.25;2.65;;;16.00;57.10;;;;;;5051968;28;20647;-55
2023/03/21 01:22:01;;;;;;;4.10;2.88;;;16.00;57.10;;;;;;5052581;28;20183;-53
2023/03/21 01:24:27;;;;;;;2.90;2.70;;;16.00;57.10;;;;;;5052860;28;20210;-53
2023/03/21 01:26:52;;;;;;;3.85;3.45;;;16.00;57.10;;;;;;5051762;28;20633;-53
2023/03/21 01:29:18;;;;;;;3.22;2.53;;;16.00;57.10;;;;;;5052604;28;20210;-50
2023/03/21 01:31:44;;;;;;;3.60;3.05;;;16.00;57.10;;;;;;5052492;28;20179;-52
2023/03/21 01:34:09;;;;;;;3.47;2.88;;;16.00;57.10;;;;;;5051832;28;20194;-55
2023/03/21 01:36:35;;;;;;;4.32;2.63;;;16.00;57.10;;;;;;5052835;28;20181;-55
2023/03/21 01:39:01;;;;;;;2.65;2.40;;;16.00;57.10;;;;;;5051664;28;20179;-55
2023/03/21 01:41:27;;;;;;;3.70;3.13;;;16.00;57.10;;;;;;5052449;28;20656;-54
2023/03/21 01:43:53;;;;;;;5.55;2.72;;;16.00;57.10;;;;;;5051114;28;20190;-56
2023/03/21 01:46:43;;;;;;;2.72;2.50;;;16.00;57.10;;;;;;5051875;28;20167;-55
2023/03/21 01:49:26;;;;;;;3.83;2.75;;;16.00;57.10;;;;;;5049451;28;20582;-55
2023/03/21 01:51:55;;;;;;;3.25;2.97;;;16.00;57.10;;;;;;5052239;28;20222;-55
2023/03/21 01:54:24;;;;;;;2.75;2.55;;;16.00;57.10;;;;;;5050515;28;20261;-55
2023/03/21 01:56:50;;;;;;;3.75;2.80;;;16.00;57.10;;;;;;5034578;28;20168;-54
2023/03/21 01:59:33;;;;;;;3.75;2.70;;;16.00;57.10;;;;;;5034708;28;20591;-56
2023/03/21 02:02:00;;;;;;;2.60;2.22;;;16.00;57.10;;;;;;5050337;28;20691;-56
2023/03/21 02:04:27;;;;;;;3.45;2.55;;;15.90;57.10;;;;;;5034813;28;20633;-56
2023/03/21 02:06:56;;;;;;;3.00;2.80;;;15.90;57.10;;;;;;5052263;28;20587;-55
2023/03/21 02:09:24;;;;;;;3.20;2.80;;;16.00;57.10;;;;;;5050702;28;20207;-54
2023/03/21 02:11:50;;;;;;;3.58;2.63;;;15.90;57.10;;;;;;5034738;28;20237;-55
2023/03/21 02:14:16;;;;;;;3.40;2.90;;;16.00;57.10;;;;;;5051777;28;20191;-55
2023/03/21 02:17:05;;;;;;;3.10;2.58;;;15.90;57.10;;;;;;5052353;28;20181;-55
2023/03/21 02:19:50;;;;;;;2.60;2.40;;;16.00;57.20;;;;;;5051182;28;20238;-54
2023/03/21 02:22:44;;;;;;;2.60;2.40;;;15.90;57.10;;;;;;5050410;28;20537;-55
2023/03/21 02:25:28;;;;;;;3.15;2.60;;;15.90;57.20;;;;;;5035888;28;20175;-55
2023/03/21 02:28:07;;;;;;;4.10;2.58;;;15.90;57.10;;;;;;5056150;28;20213;-54
2023/03/21 02:31:03;;;;;;;3.05;2.35;;;15.90;57.10;;;;;;5039823;28;20231;-55
2023/03/21 02:34:05;;;;;;;3.40;2.65;;;15.90;57.10;;;;;;5040017;28;20528;-56
2023/03/21 02:36:49;;;;;;;3.40;2.47;;;15.90;57.10;;;;;;5054379;28;20191;-56
2023/03/21 02:39:29;;;;;;;2.83;2.63;;;15.90;57.10;;;;;;5056247;28;20206;-56
2023/03/21 02:42:34;;;;;;;2.90;2.50;;;15.90;57.10;;;;;;5055976;28;20209;-56
2023/03/21 02:45:16;;;;;;;2.80;2.40;;;15.90;57.10;;;;;;5054428;28;20258;-55
2023/03/21 02:47:46;;;;;;;3.45;2.83;;;15.90;57.20;;;;;;5038212;28;20182;-56
2023/03/21 02:50:25;;;;;;;3.45;2.78;;;15.90;57.20;;;;;;5055434;28;20262;-55
2023/03/21 02:52:51;;;;;;;2.92;2.45;;;15.90;57.30;;;;;;5054826;28;20253;-56
2023/03/21 02:55:21;;;;;;;2.47;2.28;;;15.90;57.20;;;;;;5054640;28;20646;-55
2023/03/21 02:57:47;;;;;;;2.60;2.40;;;15.90;57.20;;;;;;5053508;28;20537;-55
2023/03/21 03:00:19;;;;;;;2.75;2.50;;;15.90;57.30;;;;;;5037980;28;20172;-55
2023/03/21 03:02:44;;;;;;;2.85;2.65;;;15.90;57.30;;;;;;5054449;28;20543;-56
2023/03/21 03:05:16;;;;;;;4.00;2.83;;;15.90;57.20;;;;;;5055133;28;20418;-55
2023/03/21 03:07:52;;;;;;;2.63;2.42;;;15.90;57.30;;;;;;5055602;28;20175;-54
2023/03/21 03:10:30;;;;;;;2.75;2.55;;;15.90;57.30;;;;;;5054071;28;20633;-52
2023/03/21 03:13:24;;;;;;;2.85;2.65;;;15.90;57.30;;;;;;5055510;28;20171;-54
2023/03/21 03:16:08;;;;;;;2.47;2.28;;;15.90;57.30;;;;;;5054306;28;20167;-55
2023/03/21 03:18:52;;;;;;;2.85;2.40;;;15.80;57.20;;;;;;5054357;28;20171;-52
2023/03/21 03:21:27;;;;;;;3.13;2.78;;;15.80;57.20;;;;;;5054093;28;20202;-53
2023/03/21 03:23:56;;;;;;;3.25;2.38;;;15.80;57.20;;;;;;5053671;28;20651;-53
2023/03/21 03:26:32;;;;;;;2.78;2.28;;;15.80;57.20;;;;;;5052081;28;20190;-54
2023/03/21 03:29:00;;;;;;;2.75;2.40;;;15.80;57.20;;;;;;5036424;28;20214;-55
2023/03/21 03:31:29;;;;;;;3.60;2.30;;;15.80;57.20;;;;;;5035850;28;20255;-55
2023/03/21 03:33:56;;;;;;;2.95;2.70;;;15.80;57.20;;;;;;5052537;28;20590;-56
2023/03/21 03:36:24;;;;;;;2.95;2.42;;;15.80;57.30;;;;;;5036115;28;20539;-54
2023/03/21 03:38:50;;;;;;;2.47;2.28;;;15.80;57.30;;;;;;5051490;28;20182;-55
2023/03/21 03:41:19;;;;;;;2.63;2.42;;;15.80;57.30;;;;;;5052334;28;20175;-56
2023/03/21 03:43:47;;;;;;;3.42;2.72;;;15.80;57.30;;;;;;5036134;28;20563;-56
2023/03/21 03:46:23;;;;;;;3.17;2.60;;;15.80;57.30;;;;;;5051900;28;20175;-57
2023/03/21 03:48:57;;;;;;;2.80;2.40;;;15.80;57.30;;;;;;5052230;28;20207;-56
2023/03/21 03:51:25;;;;;;;2.70;2.50;;;15.80;57.30;;;;;;5052437;28;20171;-55
2023/03/21 03:54:02;;;;;;;2.70;2.50;;;15.80;57.30;;;;;;5035051;28;20383;-53
2023/03/21 03:56:29;;;;;;;3.38;3.08;;;15.80;57.30;;;;;;5052377;28;20695;-55
2023/03/21 03:58:55;;;;;;;3.10;2.75;;;15.80;57.30;;;;;;5035428;28;20178;-53
2023/03/21 04:01:21;;;;;;;3.13;2.80;;;15.80;57.30;;;;;;5051454;28;20717;-55
2023/03/21 04:03:50;;;;;;;2.95;2.75;;;15.80;57.30;;;;;;5053213;28;20246;-55
2023/03/21 04:06:15;;;;;;;2.90;2.70;;;15.70;57.30;;;;;;5053474;28;20195;-56
2023/03/21 04:08:41;;;;;;;3.97;2.88;;;15.70;57.30;;;;;;5052833;28;20218;-55
2023/03/21 04:11:07;;;;;;;2.47;2.25;;;15.80;57.40;;;;;;5053390;28;20172;-56
2023/03/21 04:13:33;;;;;;;4.00;2.92;;;15.80;57.30;;;;;;5052982;28;20206;-54
2023/03/21 04:15:59;;;;;;;3.38;2.83;;;15.80;57.30;;;;;;5052701;28;20286;-53
2023/03/21 04:18:25;;;;;;;2.70;2.50;;;15.80;57.40;;;;;;5053124;28;20228;-53
2023/03/21 04:20:50;;;;;;;2.13;2.03;;;15.80;57.40;;;;;;5016564;28;1049042;-55
2023/03/21 04:23:18;;;;;;;2.80;2.60;;;15.70;57.30;;;;;;5054106;28;20638;-56
2023/03/21 04:25:44;;;;;;;2.95;2.70;;;15.70;57.30;;;;;;5053964;28;20175;-55
2023/03/21 04:28:09;;;;;;;3.03;2.63;;;15.70;57.30;;;;;;5053294;28;20237;-55
2023/03/21 04:30:35;;;;;;;3.65;2.67;;;15.70;57.40;;;;;;5054024;28;20225;-56
2023/03/21 04:33:00;;;;;;;2.95;2.25;;;15.70;57.40;;;;;;5053818;28;20179;-54
2023/03/21 04:35:27;;;;;;;2.60;2.13;;;15.70;57.30;;;;;;5053180;28;20167;-56
2023/03/21 04:37:52;;;;;;;2.80;2.60;;;15.70;57.30;;;;;;5053826;28;20181;-55
2023/03/21 04:40:18;;;;;;;2.40;2.20;;;15.70;57.30;;;;;;5053900;28;20175;-57
2023/03/21 04:42:44;;;;;;;3.13;2.40;;;15.70;57.30;;;;;;5052910;28;20255;-56
2023/03/21 04:45:10;;;;;;;2.90;2.40;;;15.70;57.30;;;;;;5053864;28;20171;-57
2023/03/21 04:47:36;;;;;;;3.47;2.53;;;15.70;57.40;;;;;;5053646;28;20186;-57
2023/03/21 04:50:01;;;;;;;3.83;2.67;;;15.70;57.40;;;;;;5052078;28;20239;-55
2023/03/21 04:52:27;;;;;;;3.28;2.28;;;15.70;57.40;;;;;;5053823;28;20543;-56
2023/03/21 04:54:52;;;;;;;3.78;2.35;;;15.70;57.40;;;;;;5053417;28;20652;-57
2023/03/21 04:57:18;;;;;;;3.65;2.83;;;15.70;57.50;;;;;;5052721;28;20171;-56
2023/03/21 04:59:44;;;;;;;2.63;2.10;;;15.70;57.40;;;;;;5053295;28;20190;-58
2023/03/21 05:02:10;;;;;;;2.13;1.92;;;15.70;57.40;;;;;;5053559;28;20186;-57
2023/03/21 05:04:36;;;;;;;3.15;2.33;;;15.70;57.40;;;;;;5052723;28;20167;-58
2023/03/21 05:07:01;;;;;;;1.75;1.65;;;15.70;57.50;;;;;;5053377;28;20262;-57
2023/03/21 05:09:27;;;;;;;2.47;2.00;;;15.70;57.40;;;;;;5053580;28;20249;-55
2023/03/21 05:11:52;;;;;;;2.92;2.28;;;15.70;57.50;;;;;;5052077;28;20233;-51
2023/03/21 05:14:20;;;;;;;3.28;2.28;;;15.70;57.40;;;;;;5053290;28;20179;-56
2023/03/21 05:16:51;;;;;;;2.60;2.40;;;15.70;57.40;;;;;;5053105;28;20186;-56
2023/03/21 05:19:19;;;;;;;2.88;2.28;;;15.70;57.40;;;;;;5052830;28;20369;-52
2023/03/21 05:21:45;;;;;;;3.20;2.20;;;15.70;57.40;;;;;;5052878;28;20645;-56
2023/03/21 05:24:13;;;;;;;2.47;2.28;;;15.70;57.40;;;;;;5052496;28;20179;-56
2023/03/21 05:26:39;;;;;;;3.38;2.25;;;15.70;57.40;;;;;;5051927;28;20577;-56
2023/03/21 05:29:04;;;;;;;2.42;1.90;;;15.70;57.50;;;;;;5052835;28;20207;-56
2023/03/21 05:31:30;;;;;;;3.38;2.03;;;15.70;57.60;;;;;;5052385;28;20535;-55
2023/03/21 05:33:55;;;;;;;2.33;2.10;;;15.70;57.50;;;;;;5052658;28;20189;-55
2023/03/21 05:36:21;;;;;;;2.42;1.85;;;15.60;57.40;;;;;;5053065;28;20252;-57
2023/03/21 05:38:46;;;;;;;2.60;1.90;;;15.70;57.50;;;;;;5052006;28;20172;-57
2023/03/21 05:41:13;;;;;;;2.33;2.13;;;15.70;57.50;;;;;;5052904;28;20233;-57
2023/03/21 05:43:41;;;;;;;2.30;2.10;;;15.70;57.50;;;;;;5052672;28;20179;-58
2023/03/21 05:46:07;;;;;;;2.35;2.20;;;15.70;57.50;;;;;;5052065;28;20225;-57
2023/03/21 05:48:33;;;;;;;2.17;2.00;;;15.60;57.40;;;;;;5052941;28;20689;-57
2023/03/21 05:50:59;;;;;;;2.25;1.98;;;15.60;57.40;;;;;;5052358;28;20233;-56
2023/03/21 05:53:25;;;;;;;2.92;1.75;;;15.60;57.40;;;;;;5051863;28;20179;-54
2023/03/21 05:55:50;;;;;;;2.30;2.10;;;15.70;57.50;;;;;;5052240;28;20178;-53
2023/03/21 05:58:16;;;;;;;2.17;1.80;;;15.70;57.50;;;;;;5052639;28;20182;-56
2023/03/21 06:00:42;;;;;;;1.85;1.75;;;15.60;57.60;;;;;;5051334;28;20178;-57
2023/03/21 06:03:07;;;;;;;2.50;2.30;;;15.70;57.60;;;;;;5052658;28;20186;-57
2023/03/21 06:05:33;;;;;;;2.30;2.10;;;15.60;57.60;;;;;;5052731;28;20254;-57
2023/03/21 06:07:58;;;;;;;2.92;1.95;;;15.60;57.50;;;;;;5051439;28;20705;-57
2023/03/21 06:10:24;;;;;;;2.92;2.30;;;15.70;57.70;;;;;;5052515;28;20179;-56
2023/03/21 06:12:49;;;;;;;2.30;2.10;;;15.60;57.60;;;;;;5052095;28;20171;-56
2023/03/21 06:15:15;;;;;;;2.05;1.83;;;15.60;57.60;;;;;;5051534;28;20579;-56
2023/03/21 06:17:43;;;;;;;2.40;2.20;;;15.60;57.50;;;;;;5052219;28;20678;-57
2023/03/21 06:20:10;;;;;;;2.20;1.90;;;15.60;57.50;;;;;;5051816;28;20229;-57
2023/03/21 06:22:35;;;;;;;2.30;2.10;;;15.60;57.60;;;;;;5052099;28;20279;-56
2023/03/21 06:25:01;;;;;;;2.20;2.00;;;15.60;57.60;;;;;;5051756;28;20187;-56
2023/03/21 06:27:27;;;;;;;2.35;2.10;;;15.60;57.60;;;;;;5051484;28;20194;-56
2023/03/21 06:29:52;;;;;;;2.78;2.05;;;15.60;57.60;;;;;;5051633;28;20215;-57
2023/03/21 06:32:18;;;;;;;2.28;2.00;;;15.60;57.60;;;;;;5052367;28;20575;-58
2023/03/21 06:34:43;;;;;;;2.72;2.22;;;15.60;57.60;;;;;;5051314;28;20171;-55
2023/03/21 06:37:09;;;;;;;1.85;1.75;;;15.60;57.60;;;;;;5052152;28;20174;-56
2023/03/21 06:39:35;;;;;;;2.00;1.90;;;15.60;57.60;;;;;;5052202;28;20187;-57
2023/03/21 06:42:00;;;;;;;2.78;2.08;;;15.60;57.60;;;;;;5050905;28;20179;-58
2023/03/21 06:44:26;;;;;;;3.92;2.60;;;15.60;57.60;;;;;;5052070;28;20262;-58
2023/03/21 06:46:51;;;;;;;2.15;1.92;;;15.60;57.60;;;;;;5051819;28;20270;-56
2023/03/21 06:49:17;;;;;;;2.78;1.80;;;15.60;57.90;;;;;;5051178;28;20243;-56
2023/03/21 06:51:42;;;;;;;4.15;2.38;;;15.60;58.00;;;;;;5051746;28;20684;-57
2023/03/21 06:54:08;;;;;;;3.25;2.25;;;15.70;57.80;;;;;;5051963;28;20708;-56
2023/03/21 06:56:34;;;;;;;2.65;2.45;;;15.70;57.60;;;;;;5051381;28;20198;-56
2023/03/21 06:58:59;;;;;;;3.65;2.42;;;15.70;57.60;;;;;;5051829;28;20691;-58
2023/03/21 07:01:26;;;;;;;2.45;1.80;;;15.70;57.80;;;;;;5051590;28;20172;-57
2023/03/21 07:03:56;;;;;;;1.80;1.70;;;15.70;57.80;;;;;;5051067;28;20226;-57
2023/03/21 07:06:22;;;;;;;1.90;1.80;;;15.80;57.70;;;;;;5052206;28;20205;-52
2023/03/21 07:08:47;;;;;;;1.92;1.80;;;15.80;57.50;;;;;;5051520;28;20211;-55
2023/03/21 07:11:13;;;;;;;2.10;1.88;;;15.90;57.40;;;;;;5050926;28;20175;-55
2023/03/21 07:13:38;;;;;;;2.42;1.90;;;16.00;57.30;;;;;;5055251;28;20183;-68
2023/03/21 07:16:04;;;;;;;2.33;1.67;;;16.20;57.20;;;;;;5054994;28;20206;-63
2023/03/21 07:18:30;;;;;;;2.00;1.90;;;16.30;57.10;;;;;;5054176;28;20203;-65
2023/03/21 07:20:56;;;;;;;2.65;2.00;;;16.40;56.90;;;;;;5055013;28;20232;-63
2023/03/21 07:23:22;;;;;;;2.88;1.80;;;16.60;56.70;;;;;;5055184;28;20179;-65
2023/03/21 07:25:48;;;;;;;3.22;1.50;;;16.80;56.60;;;;;;5054124;28;20232;-63
2023/03/21 07:28:14;;;;;;;1.42;1.33;;;16.90;56.40;;;;;;5054872;28;20217;-66
2023/03/21 07:30:40;;;;;;;3.20;1.98;;;17.10;56.10;;;;;;5054534;28;20267;-68
2023/03/21 07:33:06;;;;;;;2.85;1.80;;;17.30;56.00;;;;;;5054781;28;20213;-68
2023/03/21 07:35:32;;;;;;;3.58;1.77;;;17.40;55.80;;;;;;5054638;28;20545;-67
2023/03/21 07:37:57;;;;;;;3.58;2.30;;;17.50;55.70;;;;;;5053993;28;20182;-66
2023/03/21 07:40:23;;;;;;;2.88;1.63;;;17.40;55.70;;;;;;5054535;28;20668;-66
2023/03/21 07:42:49;;;;;;;2.70;1.27;;;17.50;55.80;;;;;;5054270;28;20286;-67
2023/03/21 07:45:19;;;;;;;6.05;1.50;;;17.40;55.80;;;;;;5054259;28;20254;-68
2023/03/21 07:47:48;;;;;;;2.72;1.52;;;17.40;55.90;;;;;;5054532;28;20253;-68
2023/03/21 07:50:14;;;;;;;3.92;1.67;;;17.30;56.00;;;;;;5054558;28;20591;-68
2023/03/21 07:52:40;;;;;;;2.30;1.25;;;17.40;56.10;;;;;;5053931;28;20618;-67
2023/03/21 07:55:05;;;;;;;1.67;1.30;;;17.30;56.20;;;;;;5054123;28;20233;-67
2023/03/21 07:57:31;;;;;;;2.92;1.50;;;17.30;56.20;;;;;;5054545;28;20175;-69
2023/03/21 07:59:56;;;;;;;2.33;1.20;;;17.30;56.20;;;;;;5053543;28;20175;-68
2023/03/21 08:02:22;;;;;;;1.55;1.45;;;17.30;56.30;;;;;;5054521;28;20171;-70
2023/03/21 08:04:48;;;;;;;2.03;1.40;;;17.30;56.30;;;;;;5054099;28;20171;-68
2023/03/21 08:07:13;;;;;;;2.53;1.50;;;17.30;56.30;;;;;;5053898;28;20175;-67
2023/03/21 08:09:39;;;;;;;2.53;1.98;;;17.30;56.30;;;;;;5054355;28;20693;-68
2023/03/21 08:12:05;;;;;;;2.60;1.63;;;17.30;56.40;;;;;;5053959;28;20178;-67
2023/03/21 08:14:33;;;;;;;3.25;1.70;;;17.20;56.50;;;;;;5053579;28;20534;-67
2023/03/21 08:16:58;;;;;;;2.95;1.75;;;17.20;56.50;;;;;;5053823;28;20630;-65
2023/03/21 08:19:25;;;;;;;4.57;1.52;;;17.10;56.50;;;;;;5054028;28;20219;-65
2023/03/21 08:21:51;;;;;;;2.78;1.60;;;17.10;56.60;;;;;;5053108;28;20183;-65
2023/03/21 08:24:17;;;;;;;2.90;1.73;;;17.10;56.70;;;;;;5052728;28;20334;-65
2023/03/21 08:26:44;;;;;;;3.42;1.80;;;17.10;56.60;;;;;;5053744;28;20176;-66
2023/03/21 08:29:11;;;;;;;2.00;1.65;;;17.10;56.60;;;;;;5053689;28;20218;-67
2023/03/21 08:31:36;;;;;;;1.40;1.30;;;17.20;56.60;;;;;;5054093;28;20189;-66
2023/03/21 08:34:02;;;;;;;4.90;1.70;;;17.10;56.60;;;;;;5052919;28;20195;-66
2023/03/21 08:36:29;;;;;;;1.73;1.45;;;17.10;56.60;;;;;;5053888;28;20175;-66
2023/03/21 08:39:03;;;;;;;1.80;1.67;;;17.10;56.70;;;;;;5053488;28;20266;-65
2023/03/21 08:41:29;;;;;;;2.47;1.50;;;17.00;56.70;;;;;;5053130;28;20178;-66
2023/03/21 08:43:54;;;;;;;1.67;1.40;;;17.00;56.90;;;;;;5053517;28;20228;-65
2023/03/21 08:46:20;;;;;;;4.95;1.70;;;17.00;56.90;;;;;;5053716;28;20201;-66
2023/03/21 08:48:45;;;;;;;2.53;1.75;;;17.00;57.00;;;;;;5052639;28;20199;-66
2023/03/21 08:51:11;;;;;;;4.57;1.70;;;17.00;56.90;;;;;;5053471;28;20182;-66
2023/03/21 08:53:36;;;;;;;1.35;1.15;;;17.10;56.90;;;;;;5053362;28;20182;-66
2023/03/21 08:56:02;;;;;;;4.88;1.60;;;17.10;56.80;;;;;;5052324;28;20167;-65
2023/03/21 08:58:28;;;;;;;1.55;1.27;;;17.10;56.70;;;;;;5053535;28;20179;-67
2023/03/21 09:00:53;;;;;;;1.52;1.40;;;17.10;56.60;;;;;;5053303;28;20258;-69
2023/03/21 09:03:19;;;;;;;2.83;1.70;;;17.10;56.70;;;;;;5052649;28;20297;-67
2023/03/21 09:05:45;;;;;;;1.85;1.50;;;17.00;56.70;;;;;;5052870;28;20167;-67
2023/03/21 09:08:11;;;;;;;1.98;1.40;;;17.00;56.80;;;;;;5053197;28;20568;-66
2023/03/21 09:10:37;;;;;;;2.15;1.67;;;17.00;56.90;;;;;;5052304;28;20241;-66
2023/03/21 09:13:03;;;;;;;2.92;2.05;;;17.00;57.00;;;;;;5052992;28;20266;-65
2023/03/21 09:15:28;;;;;;;2.65;1.55;;;17.00;57.00;;;;;;5053088;28;20186;-66
2023/03/21 09:17:57;;;;;;;4.22;1.90;;;17.00;57.00;;;;;;5051959;28;20175;-65
2023/03/21 09:20:31;;;;;;;2.22;1.50;;;17.00;56.90;;;;;;5052726;28;20261;-65
2023/03/21 09:22:57;;;;;;;3.92;1.60;;;17.10;56.80;;;;;;5052548;28;20641;-65
2023/03/21 09:25:23;;;;;;;3.28;1.60;;;17.10;56.80;;;;;;5052280;28;20221;-65
2023/03/21 09:27:50;;;;;;;3.55;1.55;;;17.00;56.80;;;;;;5052612;28;20308;-66
2023/03/21 09:30:16;;;;;;;3.13;1.83;;;17.00;56.80;;;;;;5052024;28;20589;-67
2023/03/21 09:32:44;;;;;;;1.30;1.17;;;17.00;56.90;;;;;;5052476;28;20179;-66
2023/03/21 09:35:11;;;;;;;2.40;1.42;;;17.00;57.00;;;;;;5052331;28;20199;-66
2023/03/21 09:37:40;;;;;;;3.05;1.80;;;16.90;56.90;;;;;;5051897;28;20183;-66
2023/03/21 09:40:14;;;;;;;1.55;1.42;;;16.90;57.00;;;;;;5052605;28;20217;-65
2023/03/21 09:42:44;;;;;;;1.60;1.50;;;16.90;57.10;;;;;;5051403;28;20194;-67
2023/03/21 09:45:15;;;;;;;2.30;1.50;;;16.90;57.00;;;;;;5050538;28;20638;-65
2023/03/21 09:47:48;;;;;;;1.98;1.45;;;17.00;57.00;;;;;;5051435;28;20214;-65
2023/03/21 09:50:16;;;;;;;1.73;1.63;;;17.00;57.00;;;;;;5051507;28;20269;-65
2023/03/21 09:52:54;;;;;;;2.42;1.52;;;17.00;56.90;;;;;;5050100;28;20179;-65
2023/03/21 09:55:29;;;;;;;3.22;1.60;;;17.00;56.90;;;;;;5035638;28;20717;-66
2023/03/21 09:58:00;;;;;;;2.58;1.75;;;17.00;57.00;;;;;;5050797;28;20253;-66
2023/03/21 10:00:29;;;;;;;2.95;1.75;;;16.90;57.00;;;;;;5050195;28;20205;-67
2023/03/21 10:02:58;;;;;;;3.63;1.85;;;16.90;57.20;;;;;;5034525;28;20175;-67
2023/03/21 10:05:25;;;;;;;2.85;1.42;;;16.90;57.20;;;;;;5033961;28;20190;-66
2023/03/21 10:07:57;;;;;;;1.60;1.33;;;16.80;57.20;;;;;;5050291;28;20541;-64
2023/03/21 10:10:27;;;;;;;2.40;1.55;;;16.80;57.20;;;;;;5051641;28;20213;-64
2023/03/21 10:12:53;;;;;;;1.95;1.70;;;16.80;57.30;;;;;;5049343;28;20293;-63
2023/03/21 10:15:20;;;;;;;1.90;1.52;;;16.80;57.20;;;;;;5051835;28;20195;-64
2023/03/21 10:17:50;;;;;;;3.20;1.45;;;16.80;57.50;;;;;;5051518;28;20175;-63
2023/03/21 10:20:23;;;;;;;2.55;2.00;;;16.80;57.60;;;;;;5050063;28;20219;-64
2023/03/21 10:22:53;;;;;;;2.28;1.23;;;16.90;57.60;;;;;;5050256;28;20207;-63
2023/03/21 10:25:29;;;;;;;3.20;1.67;;;16.90;57.60;;;;;;5050748;28;20255;-63
2023/03/21 10:27:54;;;;;;;1.83;1.27;;;16.90;57.60;;;;;;5049989;28;20380;-63
2023/03/21 10:30:29;;;;;;;3.25;1.40;;;16.90;57.60;;;;;;5052125;28;20300;-66
2023/03/21 10:32:56;;;;;;;2.25;1.92;;;16.90;57.50;;;;;;5051660;28;20170;-65
2023/03/21 10:35:21;;;;;;;1.40;1.23;;;17.00;57.60;;;;;;5050000;28;20311;-66
2023/03/21 10:37:47;;;;;;;3.13;1.50;;;17.00;57.80;;;;;;5050294;28;20613;-65
2023/03/21 10:40:16;;;;;;;1.60;1.50;;;17.00;58.20;;;;;;5050829;28;20171;-64
2023/03/21 10:42:42;;;;;;;4.38;1.63;;;17.00;57.70;;;;;;5051283;28;20175;-65
2023/03/21 10:45:14;;;;;;;2.20;1.77;;;17.00;57.70;;;;;;5051731;28;20615;-63
2023/03/21 10:47:40;;;;;;;3.28;1.48;;;17.00;57.60;;;;;;5052252;28;20182;-65
2023/03/21 10:50:07;;;;;;;2.65;1.60;;;17.00;57.60;;;;;;5055412;28;20215;-64
2023/03/21 10:52:33;;;;;;;1.63;1.30;;;17.00;57.60;;;;;;5055445;28;20186;-64
2023/03/21 10:55:34;;;;;;;2.22;1.40;;;17.00;57.60;;;;;;5054826;28;20179;-65
2023/03/21 10:58:09;;;;;;;2.90;1.73;;;17.00;57.60;;;;;;5054323;28;20171;-64
2023/03/21 11:00:37;;;;;;;2.38;1.67;;;17.00;57.60;;;;;;5055487;28;20217;-65
2023/03/21 11:03:02;;;;;;;1.80;1.48;;;17.00;57.60;;;;;;5053207;28;20179;-65
2023/03/21 11:05:38;;;;;;;3.03;1.80;;;17.10;57.60;;;;;;5054729;28;20178;-65
2023/03/21 11:08:09;;;;;;;2.47;1.77;;;17.10;57.60;;;;;;5053857;28;20224;-64
2023/03/21 11:10:37;;;;;;;2.67;1.50;;;17.10;57.60;;;;;;5053459;28;20268;-63
2023/03/21 11:13:05;;;;;;;1.60;1.50;;;17.10;57.60;;;;;;5054891;28;20213;-63
2023/03/21 11:15:36;;;;;;;2.83;1.42;;;17.10;57.50;;;;;;5055452;28;20179;-63
2023/03/21 11:18:13;;;;;;;2.38;1.73;;;17.10;57.80;;;;;;5055016;28;20282;-63
2023/03/21 11:21:07;;;;;;;2.08;1.42;;;17.10;57.40;;;;;;5054923;28;20713;-65
2023/03/21 11:23:34;;;;;;;3.58;1.80;;;17.20;57.40;;;;;;5053003;28;20533;-65
2023/03/21 11:26:00;;;;;;;3.38;1.60;;;17.20;57.60;;;;;;5053348;28;20183;-65
2023/03/21 11:28:32;;;;;;;2.28;1.58;;;17.20;57.70;;;;;;5053790;28;20211;-66
2023/03/21 11:30:59;;;;;;;2.60;1.70;;;17.10;57.70;;;;;;5052842;28;20179;-67
2023/03/21 11:33:36;;;;;;;1.88;1.50;;;17.10;57.60;;;;;;5053771;28;20179;-68
2023/03/21 11:36:06;;;;;;;2.60;1.35;;;17.10;57.90;;;;;;5053550;28;20500;-66
2023/03/21 11:38:38;;;;;;;1.77;1.60;;;17.00;57.70;;;;;;5054245;28;20183;-68
2023/03/21 11:41:05;;;;;;;3.35;1.60;;;17.10;57.80;;;;;;5054684;28;20232;-67
2023/03/21 11:43:34;;;;;;;3.45;1.60;;;17.00;57.90;;;;;;5054773;28;20179;-67
2023/03/21 11:46:08;;;;;;;3.13;1.60;;;17.10;57.90;;;;;;5053717;28;20553;-67
2023/03/21 11:48:45;;;;;;;4.35;1.88;;;17.10;57.80;;;;;;5054400;28;20552;-67
2023/03/21 11:51:26;;;;;;;3.08;1.50;;;17.00;57.80;;;;;;5053788;28;20171;-66
2023/03/21 11:54:03;;;;;;;2.33;1.73;;;17.10;57.80;;;;;;5053003;28;20509;-66
2023/03/21 11:56:32;;;;;;;2.33;1.30;;;17.10;57.70;;;;;;5054563;28;20178;-67
2023/03/21 11:59:19;;;;;;;2.33;1.60;;;17.10;57.70;;;;;;5053044;28;20694;-67
2023/03/21 12:02:21;;;;;;;2.60;1.48;;;17.10;57.70;;;;;;5053212;28;20237;-68
2023/03/21 12:04:57;;;;;;;1.73;1.30;;;17.10;57.80;;;;;;5052868;28;20254;-68
2023/03/21 12:07:38;;;;;;;3.35;1.55;;;17.10;57.90;;;;;;5052985;28;20649;-67
2023/03/21 12:10:22;;;;;;;2.22;1.50;;;17.10;57.80;;;;;;5052792;28;20358;-66
2023/03/21 12:13:14;;;;;;;1.40;1.20;;;17.10;58.50;;;;;;5053277;28;20209;-66
2023/03/21 12:16:02;;;;;;;1.90;1.33;;;17.10;57.80;;;;;;5052857;28;20287;-63
2023/03/21 12:18:28;;;;;;;2.33;1.60;;;17.10;57.90;;;;;;5052937;28;20187;-63
2023/03/21 12:21:02;;;;;;;2.58;1.60;;;17.10;58.00;;;;;;5053116;28;20179;-63
2023/03/21 12:23:42;;;;;;;6.53;1.90;;;17.00;58.10;;;;;;5052862;28;20236;-63
2023/03/21 12:26:25;;;;;;;4.25;1.40;;;17.00;58.00;;;;;;5053186;28;20210;-63
2023/03/21 12:28:57;;;;;;;1.30;1.13;;;17.00;58.00;;;;;;5052539;28;20211;-64
2023/03/21 12:31:36;;;;;;;4.68;1.55;;;17.00;58.00;;;;;;5053904;28;20179;-66
2023/03/21 12:34:26;;;;;;;2.17;1.38;;;17.00;58.00;;;;;;5051443;28;20240;-67
2023/03/21 12:37:22;;;;;;;3.72;1.33;;;17.00;58.20;;;;;;5052381;28;20179;-66
2023/03/21 12:39:48;;;;;;;3.05;1.55;;;17.00;58.20;;;;;;5052257;28;20237;-64
2023/03/21 12:43:15;;;;;;;1.33;1.17;;;17.00;58.10;;;;;;5051689;28;20696;-65
2023/03/21 12:45:41;;;;;;;2.38;1.58;;;17.10;58.10;;;;;;5030212;28;20275;-65
2023/03/21 12:48:16;;;;;;;1.98;1.20;;;17.20;58.10;;;;;;5033866;28;20327;-64
2023/03/21 12:50:42;;;;;;;2.80;1.45;;;17.20;58.00;;;;;;5053200;28;20682;-65
2023/03/21 12:53:27;;;;;;;2.50;1.58;;;17.30;57.80;;;;;;5052044;28;20171;-65
2023/03/21 12:55:54;;;;;;;2.75;1.30;;;17.40;57.80;;;;;;5051290;28;20262;-65
2023/03/21 12:58:23;;;;;;;2.42;1.40;;;17.60;57.60;;;;;;5052375;28;20182;-67
2023/03/21 13:00:50;;;;;;;3.35;1.30;;;17.70;57.30;;;;;;5051825;28;20178;-67